createdAt,value
2019-03-21T00:00:50.382Z,8.95
2019-03-21T00:01:50.374Z,9.02
2019-03-21T00:02:50.361Z,9.02
2019-03-21T00:03:50.377Z,8.99
2019-03-21T00:04:50.338Z,9.01
2019-03-21T00:05:50.328Z,8.99
2019-03-21T00:06:50.316Z,9.02
2019-03-21T00:07:50.306Z,9.01
2019-03-21T00:08:50.296Z,9.01
2019-03-21T00:09:50.299Z,9.01
2019-03-21T00:10:50.269Z,9.04
2019-03-21T00:11:50.258Z,9.01
2019-03-21T00:12:50.247Z,8.96
2019-03-21T00:13:50.238Z,9.02
2019-03-21T00:14:50.254Z,9.01
2019-03-21T00:15:50.215Z,8.99
2019-03-21T00:16:50.203Z,9.04
2019-03-21T00:17:50.194Z,9.01
2019-03-21T00:18:50.181Z,8.98
2019-03-21T00:19:50.169Z,9.02
2019-03-21T00:20:50.175Z,9.04
2019-03-21T00:21:50.146Z,8.98
2019-03-21T00:22:50.134Z,9.02
2019-03-21T00:23:50.121Z,8.96
2019-03-21T00:24:50.110Z,8.96
2019-03-21T00:25:50.128Z,8.96
2019-03-21T00:26:50.087Z,8.96
2019-03-21T00:27:50.077Z,8.94
2019-03-21T00:28:50.064Z,8.89
2019-03-21T00:29:50.052Z,8.96
2019-03-21T00:30:50.042Z,8.92
2019-03-21T00:31:50.052Z,8.92
2019-03-21T00:32:50.022Z,8.96
2019-03-21T00:33:50.008Z,8.87
2019-03-21T00:34:50.000Z,8.92
2019-03-21T00:35:49.985Z,8.89
2019-03-21T00:36:50.004Z,8.87
2019-03-21T00:37:49.963Z,8.83
2019-03-21T00:38:49.951Z,8.79
2019-03-21T00:39:49.939Z,8.80
2019-03-21T00:40:49.930Z,8.83
2019-03-21T00:41:49.920Z,8.83
2019-03-21T00:42:49.924Z,8.79
2019-03-21T00:43:49.896Z,8.76
2019-03-21T00:44:49.882Z,8.79
2019-03-21T00:45:49.874Z,8.74
2019-03-21T00:46:49.862Z,8.77
2019-03-21T00:47:49.875Z,8.76
2019-03-21T00:48:49.840Z,8.70
2019-03-21T00:49:49.825Z,8.65
2019-03-21T00:50:49.861Z,8.79
2019-03-21T00:51:49.804Z,8.83
2019-03-21T00:52:49.790Z,8.79
2019-03-21T00:53:49.797Z,8.79
2019-03-21T00:54:49.770Z,8.74
2019-03-21T00:55:49.758Z,8.73
2019-03-21T00:56:49.750Z,8.79
2019-03-21T00:57:49.736Z,8.79
2019-03-21T00:58:49.751Z,8.76
2019-03-21T00:59:49.714Z,8.76
2019-03-21T01:00:49.706Z,8.80
2019-03-21T01:01:49.702Z,8.74
2019-03-21T01:02:49.683Z,8.71
2019-03-21T01:03:49.667Z,8.79
2019-03-21T01:04:49.676Z,8.68
2019-03-21T01:05:49.646Z,8.73
2019-03-21T01:06:49.635Z,8.66
2019-03-21T01:07:49.624Z,8.70
2019-03-21T01:08:49.613Z,8.68
2019-03-21T01:09:49.630Z,8.73
2019-03-21T01:10:49.612Z,8.65
2019-03-21T01:11:49.580Z,8.68
2019-03-21T01:12:49.566Z,8.74
2019-03-21T01:13:49.561Z,8.76
2019-03-21T01:14:49.545Z,8.68
2019-03-21T01:15:49.549Z,8.66
2019-03-21T01:16:49.522Z,8.70
2019-03-21T01:17:49.511Z,8.74
2019-03-21T01:18:49.497Z,8.76
2019-03-21T01:19:49.487Z,8.71
2019-03-21T01:20:49.504Z,8.76
2019-03-21T01:21:49.464Z,8.74
2019-03-21T01:22:49.455Z,8.68
2019-03-21T01:23:49.442Z,8.68
2019-03-21T01:24:49.431Z,8.61
2019-03-21T01:25:49.417Z,8.55
2019-03-21T01:26:49.428Z,8.55
2019-03-21T01:27:49.395Z,8.59
2019-03-21T01:28:49.385Z,8.59
2019-03-21T01:29:49.375Z,8.59
2019-03-21T01:30:49.361Z,8.55
2019-03-21T01:31:49.380Z,8.61
2019-03-21T01:32:49.339Z,8.61
2019-03-21T01:33:49.329Z,8.47
2019-03-21T01:34:49.317Z,8.53
2019-03-21T01:35:49.312Z,8.56
2019-03-21T01:36:49.297Z,8.61
2019-03-21T01:37:49.299Z,8.53
2019-03-21T01:38:49.271Z,8.58
2019-03-21T01:39:49.263Z,8.56
2019-03-21T01:40:49.250Z,8.47
2019-03-21T01:41:49.240Z,8.45
2019-03-21T01:42:49.379Z,8.47
2019-03-21T01:43:49.218Z,8.44
2019-03-21T01:44:49.204Z,8.40
2019-03-21T01:45:49.196Z,8.44
2019-03-21T01:46:49.180Z,8.41
2019-03-21T01:47:49.168Z,8.38
2019-03-21T01:48:49.178Z,8.43
2019-03-21T01:49:49.147Z,8.45
2019-03-21T01:50:49.139Z,8.47
2019-03-21T01:51:49.123Z,8.45
2019-03-21T01:52:49.116Z,8.44
2019-03-21T01:53:49.127Z,8.43
2019-03-21T01:54:49.089Z,8.45
2019-03-21T01:55:49.081Z,8.45
2019-03-21T01:56:49.068Z,8.40
2019-03-21T01:57:49.059Z,8.45
2019-03-21T01:58:49.044Z,8.38
2019-03-21T01:59:49.050Z,8.47
2019-03-21T02:00:49.028Z,8.43
2019-03-21T02:01:49.008Z,8.43
2019-03-21T02:02:48.998Z,8.37
2019-03-21T02:03:48.988Z,8.44
2019-03-21T02:04:49.005Z,8.45
2019-03-21T02:05:48.970Z,8.43
2019-03-21T02:06:48.957Z,8.40
2019-03-21T02:07:48.947Z,8.43
2019-03-21T02:08:48.930Z,8.44
2019-03-21T02:09:48.920Z,8.41
2019-03-21T02:10:48.931Z,8.43
2019-03-21T02:11:48.897Z,8.44
2019-03-21T02:12:48.888Z,8.43
2019-03-21T02:13:48.876Z,8.44
2019-03-21T02:14:52.374Z,8.45
2019-03-21T02:15:50.765Z,8.40
2019-03-21T02:16:48.840Z,8.40
2019-03-21T02:17:48.829Z,8.40
2019-03-21T02:18:48.817Z,8.40
2019-03-21T02:19:48.806Z,8.38
2019-03-21T02:20:48.825Z,8.41
2019-03-21T02:21:48.782Z,8.36
2019-03-21T02:22:48.810Z,8.41
2019-03-21T02:23:48.763Z,8.40
2019-03-21T02:24:48.752Z,8.43
2019-03-21T02:25:48.740Z,8.37
2019-03-21T02:26:48.751Z,8.45
2019-03-21T02:27:48.714Z,8.40
2019-03-21T02:28:48.707Z,8.43
2019-03-21T02:29:48.695Z,8.38
2019-03-21T02:30:48.682Z,8.43
2019-03-21T02:31:48.701Z,8.43
2019-03-21T02:32:48.662Z,8.44
2019-03-21T02:33:48.656Z,8.41
2019-03-21T02:34:48.640Z,8.44
2019-03-21T02:35:48.634Z,8.43
2019-03-21T02:36:48.617Z,8.45
2019-03-21T02:37:48.623Z,8.44
2019-03-21T02:38:48.601Z,8.44
2019-03-21T02:39:59.429Z,8.47
2019-03-21T02:40:49.579Z,8.44
2019-03-21T02:41:48.561Z,8.44
2019-03-21T02:42:48.566Z,8.40
2019-03-21T02:43:48.536Z,8.48
2019-03-21T02:44:48.582Z,8.38
2019-03-21T02:45:48.515Z,8.45
2019-03-21T02:46:48.512Z,8.38
2019-03-21T02:47:48.521Z,8.40
2019-03-21T02:48:48.481Z,8.37
2019-03-21T02:49:48.468Z,8.34
2019-03-21T02:50:49.381Z,8.33
2019-03-21T02:51:48.448Z,8.33
2019-03-21T02:52:48.438Z,8.29
2019-03-21T02:53:48.441Z,8.29
2019-03-21T02:54:48.412Z,8.25
2019-03-21T02:55:48.403Z,8.28
2019-03-21T02:56:48.393Z,8.23
2019-03-21T02:57:48.375Z,8.20
2019-03-21T02:58:48.395Z,8.23
2019-03-21T02:59:48.356Z,8.18
2019-03-21T03:00:48.350Z,8.18
2019-03-21T03:01:48.336Z,8.15
2019-03-21T03:02:48.322Z,8.10
2019-03-21T03:03:48.309Z,8.12
2019-03-21T03:04:48.318Z,8.10
2019-03-21T03:05:48.348Z,8.05
2019-03-21T03:06:48.276Z,8.02
2019-03-21T03:07:48.267Z,8.11
2019-03-21T03:08:48.255Z,8.02
2019-03-21T03:09:48.269Z,8.02
2019-03-21T03:10:48.232Z,8.02
2019-03-21T03:11:48.225Z,7.93
2019-03-21T03:12:48.208Z,7.97
2019-03-21T03:13:48.198Z,7.80
2019-03-21T03:14:48.190Z,7.89
2019-03-21T03:15:48.192Z,7.79
2019-03-21T03:16:48.165Z,7.93
2019-03-21T03:17:48.153Z,7.86
2019-03-21T03:18:48.142Z,7.82
2019-03-21T03:19:48.157Z,7.89
2019-03-21T03:20:48.152Z,7.87
2019-03-21T03:21:48.114Z,7.86
2019-03-21T03:22:48.096Z,7.95
2019-03-21T03:23:48.086Z,7.87
2019-03-21T03:24:48.078Z,7.85
2019-03-21T03:25:50.824Z,7.86
2019-03-21T03:26:48.066Z,7.85
2019-03-21T03:27:48.039Z,7.87
2019-03-21T03:28:48.030Z,7.89
2019-03-21T03:29:48.026Z,7.80
2019-03-21T03:30:48.017Z,7.87
2019-03-21T03:31:48.043Z,7.86
2019-03-21T03:32:47.985Z,7.86
2019-03-21T03:33:47.973Z,7.90
2019-03-21T03:34:47.983Z,7.89
2019-03-21T03:35:47.963Z,7.87
2019-03-21T03:36:47.939Z,7.87
2019-03-21T03:37:47.943Z,7.86
2019-03-21T03:38:47.917Z,7.75
2019-03-21T03:39:47.905Z,7.74
2019-03-21T03:40:47.894Z,7.61
2019-03-21T03:41:47.886Z,7.71
2019-03-21T03:42:47.902Z,7.63
2019-03-21T03:43:47.865Z,7.61
2019-03-21T03:44:47.859Z,7.61
2019-03-21T03:45:47.845Z,7.57
2019-03-21T03:46:47.828Z,7.60
2019-03-21T03:47:47.819Z,7.60
2019-03-21T03:48:47.821Z,7.60
2019-03-21T03:49:47.793Z,7.61
2019-03-21T03:50:47.784Z,7.61
2019-03-21T03:51:47.781Z,7.58
2019-03-21T03:52:47.762Z,7.60
2019-03-21T03:53:47.783Z,7.58
2019-03-21T03:54:47.738Z,7.55
2019-03-21T03:55:47.727Z,7.57
2019-03-21T03:56:47.716Z,7.60
2019-03-21T03:57:47.712Z,7.58
2019-03-21T03:58:47.699Z,7.57
2019-03-21T03:59:47.702Z,7.53
2019-03-21T04:00:47.671Z,7.61
2019-03-21T04:01:47.660Z,7.52
2019-03-21T04:02:47.661Z,7.55
2019-03-21T04:03:47.645Z,7.52
2019-03-21T04:04:47.648Z,7.57
2019-03-21T04:05:47.639Z,7.63
2019-03-21T04:06:47.613Z,7.57
2019-03-21T04:07:47.592Z,7.58
2019-03-21T04:08:47.584Z,7.45
2019-03-21T04:09:47.570Z,7.50
2019-03-21T04:10:47.581Z,7.48
2019-03-21T04:11:47.545Z,7.42
2019-03-21T04:12:47.537Z,7.35
2019-03-21T04:13:47.527Z,7.34
2019-03-21T04:14:47.513Z,7.37
2019-03-21T04:15:53.162Z,7.37
2019-03-21T04:16:48.488Z,7.31
2019-03-21T04:17:47.478Z,7.34
2019-03-21T04:18:47.470Z,7.35
2019-03-21T04:19:47.455Z,7.32
2019-03-21T04:20:47.460Z,7.32
2019-03-21T04:21:47.435Z,7.40
2019-03-21T04:22:47.425Z,7.39
2019-03-21T04:23:47.412Z,7.40
2019-03-21T04:24:47.400Z,7.37
2019-03-21T04:25:47.407Z,7.50
2019-03-21T04:26:47.382Z,7.34
2019-03-21T04:27:47.366Z,7.37
2019-03-21T04:28:47.358Z,7.30
2019-03-21T04:29:47.345Z,7.37
2019-03-21T04:30:47.355Z,7.37
2019-03-21T04:31:47.328Z,7.35
2019-03-21T04:32:47.311Z,7.32
2019-03-21T04:33:47.303Z,7.28
2019-03-21T04:34:47.294Z,7.32
2019-03-21T04:35:47.293Z,7.35
2019-03-21T04:36:47.272Z,7.31
2019-03-21T04:37:47.255Z,7.34
2019-03-21T04:38:47.249Z,7.35
2019-03-21T04:39:47.244Z,7.24
2019-03-21T04:40:47.242Z,7.24
2019-03-21T04:41:56.447Z,7.17
2019-03-21T04:42:47.198Z,7.31
2019-03-21T04:43:47.192Z,7.20
2019-03-21T04:44:47.182Z,7.30
2019-03-21T04:45:47.181Z,7.30
2019-03-21T04:46:47.155Z,7.23
2019-03-21T04:47:47.143Z,7.27
2019-03-21T04:48:47.130Z,7.24
2019-03-21T04:49:47.124Z,7.25
2019-03-21T04:50:47.129Z,7.24
2019-03-21T04:51:47.103Z,7.24
2019-03-21T04:52:47.087Z,7.28
2019-03-21T04:53:47.078Z,7.25
2019-03-21T04:54:47.064Z,7.21
2019-03-21T04:55:47.070Z,7.28
2019-03-21T04:56:47.043Z,7.21
2019-03-21T04:57:47.033Z,7.21
2019-03-21T04:58:47.021Z,7.23
2019-03-21T04:59:47.008Z,7.27
2019-03-21T05:00:47.015Z,7.20
2019-03-21T05:01:46.984Z,7.27
2019-03-21T05:02:46.987Z,7.23
2019-03-21T05:03:46.964Z,7.23
2019-03-21T05:04:46.950Z,7.15
2019-03-21T05:05:46.957Z,7.20
2019-03-21T05:06:46.934Z,7.06
2019-03-21T05:07:46.920Z,7.12
2019-03-21T05:08:46.907Z,7.09
2019-03-21T05:09:46.897Z,7.16
2019-03-21T05:10:46.901Z,7.06
2019-03-21T05:11:46.874Z,7.12
2019-03-21T05:12:46.868Z,7.07
2019-03-21T05:13:46.850Z,7.09
2019-03-21T05:14:46.844Z,7.12
2019-03-21T05:15:46.849Z,7.10
2019-03-21T05:16:46.819Z,7.09
2019-03-21T05:17:46.806Z,7.06
2019-03-21T05:18:46.797Z,7.09
2019-03-21T05:19:46.784Z,7.09
2019-03-21T05:20:46.792Z,7.06
2019-03-21T05:21:46.762Z,7.07
2019-03-21T05:22:46.753Z,7.05
2019-03-21T05:23:47.452Z,7.07
2019-03-21T05:24:46.727Z,7.07
2019-03-21T05:25:46.733Z,7.07
2019-03-21T05:26:46.708Z,7.02
2019-03-21T05:27:46.694Z,6.94
2019-03-21T05:28:46.687Z,6.95
2019-03-21T05:29:46.675Z,6.97
2019-03-21T05:30:46.682Z,7.06
2019-03-21T05:31:46.649Z,6.98
2019-03-21T05:32:46.638Z,7.05
2019-03-21T05:33:46.627Z,7.07
2019-03-21T05:34:46.619Z,7.12
2019-03-21T05:35:46.621Z,7.02
2019-03-21T05:36:46.593Z,7.07
2019-03-21T05:37:46.592Z,7.06
2019-03-21T05:38:46.575Z,6.94
2019-03-21T05:39:46.563Z,7.07
2019-03-21T05:40:46.566Z,7.05
2019-03-21T05:41:46.542Z,7.03
2019-03-21T05:42:46.532Z,6.94
2019-03-21T05:43:46.519Z,6.98
2019-03-21T05:44:46.508Z,6.99
2019-03-21T05:45:46.509Z,6.95
2019-03-21T05:46:46.484Z,7.03
2019-03-21T05:47:46.480Z,7.06
2019-03-21T05:48:46.463Z,7.10
2019-03-21T05:49:46.453Z,7.06
2019-03-21T05:50:46.460Z,7.09
2019-03-21T05:51:46.425Z,7.05
2019-03-21T05:52:46.415Z,7.06
2019-03-21T05:53:46.405Z,7.09
2019-03-21T05:54:46.393Z,7.06
2019-03-21T05:55:46.400Z,7.10
2019-03-21T05:56:46.372Z,7.17
2019-03-21T05:57:46.356Z,7.20
2019-03-21T05:58:46.351Z,7.20
2019-03-21T05:59:55.992Z,7.21
2019-03-21T06:00:55.472Z,7.15
2019-03-21T06:01:56.070Z,7.24
2019-03-21T06:02:54.609Z,7.24
2019-03-21T06:03:55.650Z,7.21
2019-03-21T06:04:54.689Z,7.23
2019-03-21T06:05:53.851Z,7.23
2019-03-21T06:06:55.764Z,7.27
2019-03-21T06:07:46.246Z,7.34
2019-03-21T06:08:46.765Z,7.24
2019-03-21T06:09:46.224Z,7.24
2019-03-21T06:10:46.229Z,7.28
2019-03-21T06:11:46.201Z,7.35
2019-03-21T06:12:46.191Z,7.37
2019-03-21T06:13:46.179Z,7.32
2019-03-21T06:14:46.168Z,7.32
2019-03-21T06:15:46.171Z,7.48
2019-03-21T06:16:46.145Z,7.58
2019-03-21T06:17:46.133Z,7.57
2019-03-21T06:18:46.129Z,7.58
2019-03-21T06:19:46.112Z,7.58
2019-03-21T06:20:46.115Z,7.67
2019-03-21T06:21:46.093Z,7.67
2019-03-21T06:22:46.079Z,7.61
2019-03-21T06:23:46.066Z,7.71
2019-03-21T06:24:46.057Z,7.64
2019-03-21T06:25:46.060Z,7.79
2019-03-21T06:26:46.035Z,7.86
2019-03-21T06:27:46.029Z,7.80
2019-03-21T06:28:46.011Z,7.89
2019-03-21T06:29:45.999Z,8.04
2019-03-21T06:30:46.007Z,8.05
2019-03-21T06:31:45.977Z,8.16
2019-03-21T06:32:45.965Z,8.20
2019-03-21T06:33:45.957Z,8.26
2019-03-21T06:34:45.944Z,8.36
2019-03-21T06:35:45.950Z,8.43
2019-03-21T06:36:45.920Z,8.47
2019-03-21T06:37:45.913Z,8.56
2019-03-21T06:38:45.898Z,8.59
2019-03-21T06:39:45.888Z,8.80
2019-03-21T06:40:45.896Z,8.81
2019-03-21T06:41:45.872Z,8.83
2019-03-21T06:42:45.854Z,8.98
2019-03-21T06:43:45.841Z,9.04
2019-03-21T06:44:45.830Z,9.01
2019-03-21T06:45:48.153Z,9.05
2019-03-21T06:46:49.742Z,9.28
2019-03-21T06:47:45.798Z,9.18
2019-03-21T06:48:45.787Z,9.21
2019-03-21T06:49:46.637Z,9.33
2019-03-21T06:50:45.780Z,9.46
2019-03-21T06:51:45.750Z,9.56
2019-03-21T06:52:45.741Z,9.71
2019-03-21T06:53:45.727Z,9.81
2019-03-21T06:54:45.717Z,9.83
2019-03-21T06:55:45.723Z,10.01
2019-03-21T06:56:45.694Z,10.09
2019-03-21T06:57:45.682Z,10.14
2019-03-21T06:58:45.672Z,10.23
2019-03-21T06:59:45.664Z,10.33
2019-03-21T07:00:45.666Z,10.22
2019-03-21T07:01:45.643Z,10.20
2019-03-21T07:02:45.626Z,10.29
2019-03-21T07:03:45.620Z,10.32
2019-03-21T07:04:45.604Z,10.33
2019-03-21T07:05:45.609Z,10.30
2019-03-21T07:06:45.585Z,10.42
2019-03-21T07:07:45.569Z,10.51
2019-03-21T07:08:45.561Z,10.59
2019-03-21T07:09:45.558Z,10.74
2019-03-21T07:10:45.555Z,10.79
2019-03-21T07:11:45.526Z,10.86
2019-03-21T07:12:45.514Z,10.94
2019-03-21T07:13:45.502Z,10.99
2019-03-21T07:14:45.493Z,11.06
2019-03-21T07:15:45.502Z,11.03
2019-03-21T07:16:45.474Z,11.04
2019-03-21T07:17:45.458Z,11.14
2019-03-21T07:18:45.448Z,11.25
2019-03-21T07:19:45.440Z,11.29
2019-03-21T07:20:45.440Z,11.40
2019-03-21T07:21:45.417Z,11.32
2019-03-21T07:22:45.402Z,11.43
2019-03-21T07:23:45.391Z,11.44
2019-03-21T07:24:45.382Z,11.36
2019-03-21T07:25:45.383Z,11.39
2019-03-21T07:26:45.358Z,11.39
2019-03-21T07:27:45.347Z,11.42
2019-03-21T07:28:45.337Z,11.55
2019-03-21T07:29:45.324Z,11.58
2019-03-21T07:30:45.331Z,11.61
2019-03-21T07:31:45.304Z,11.73
2019-03-21T07:32:45.292Z,11.65
2019-03-21T07:33:45.278Z,11.69
2019-03-21T07:34:45.267Z,11.79
2019-03-21T07:35:45.273Z,11.99
2019-03-21T07:36:45.246Z,12.13
2019-03-21T07:37:45.235Z,12.24
2019-03-21T07:38:45.223Z,12.46
2019-03-21T07:39:45.217Z,12.52
2019-03-21T07:40:45.218Z,12.59
2019-03-21T07:41:45.188Z,12.79
2019-03-21T07:42:45.176Z,12.78
2019-03-21T07:43:45.167Z,12.75
2019-03-21T07:44:45.155Z,12.87
2019-03-21T07:45:45.159Z,12.89
2019-03-21T07:46:45.130Z,12.97
2019-03-21T07:47:45.122Z,13.05
2019-03-21T07:48:45.110Z,13.10
2019-03-21T07:49:45.101Z,13.19
2019-03-21T07:50:45.103Z,13.28
2019-03-21T07:51:45.388Z,13.44
2019-03-21T07:52:45.062Z,13.60
2019-03-21T07:53:45.051Z,13.71
2019-03-21T07:54:45.040Z,13.69
2019-03-21T07:55:45.053Z,13.77
2019-03-21T07:56:45.020Z,13.75
2019-03-21T07:57:45.009Z,13.78
2019-03-21T07:58:45.003Z,13.81
2019-03-21T07:59:44.986Z,13.71
2019-03-21T08:00:44.994Z,13.88
2019-03-21T08:01:44.964Z,13.79
2019-03-21T08:02:44.957Z,13.85
2019-03-21T08:03:44.942Z,13.91
2019-03-21T08:04:44.930Z,13.97
2019-03-21T08:05:44.938Z,14.18
2019-03-21T08:06:44.912Z,14.32
2019-03-21T08:07:44.898Z,14.37
2019-03-21T08:08:44.883Z,14.55
2019-03-21T08:09:44.876Z,14.62
2019-03-21T08:10:44.882Z,14.58
2019-03-21T08:11:44.858Z,14.61
2019-03-21T08:12:44.839Z,14.64
2019-03-21T08:13:44.829Z,14.75
2019-03-21T08:14:44.825Z,14.86
2019-03-21T08:15:44.821Z,14.89
2019-03-21T08:16:44.793Z,14.99
2019-03-21T08:17:44.799Z,15.07
2019-03-21T08:18:44.769Z,15.14
2019-03-21T08:19:44.761Z,15.14
2019-03-21T08:20:55.655Z,15.21
2019-03-21T08:21:45.735Z,15.16
2019-03-21T08:22:44.722Z,15.21
2019-03-21T08:23:44.715Z,15.23
2019-03-21T08:24:44.700Z,15.23
2019-03-21T08:25:44.705Z,15.25
2019-03-21T08:26:44.680Z,15.34
2019-03-21T08:27:44.668Z,15.41
2019-03-21T08:28:44.659Z,15.56
2019-03-21T08:29:44.641Z,15.57
2019-03-21T08:30:44.650Z,15.57
2019-03-21T08:31:44.619Z,15.59
2019-03-21T08:32:44.607Z,15.68
2019-03-21T08:33:44.601Z,15.72
2019-03-21T08:34:44.585Z,15.76
2019-03-21T08:35:44.592Z,15.86
2019-03-21T08:36:44.562Z,15.96
2019-03-21T08:37:44.550Z,16.00
2019-03-21T08:38:44.537Z,16.05
2019-03-21T08:39:44.528Z,16.15
2019-03-21T08:40:44.532Z,16.15
2019-03-21T08:41:44.505Z,16.21
2019-03-21T08:42:44.495Z,16.24
2019-03-21T08:43:44.484Z,16.30
2019-03-21T08:44:44.472Z,16.31
2019-03-21T08:45:44.479Z,16.39
2019-03-21T08:46:44.449Z,16.43
2019-03-21T08:47:44.440Z,16.52
2019-03-21T08:48:44.431Z,16.50
2019-03-21T08:49:44.415Z,16.43
2019-03-21T08:50:44.423Z,16.50
2019-03-21T08:51:44.393Z,16.52
2019-03-21T08:52:44.382Z,16.56
2019-03-21T08:53:44.374Z,16.61
2019-03-21T08:54:44.360Z,16.71
2019-03-21T08:55:44.365Z,16.76
2019-03-21T08:56:44.337Z,16.93
2019-03-21T08:57:44.327Z,17.06
2019-03-21T08:58:44.316Z,17.00
2019-03-21T08:59:44.303Z,17.04
2019-03-21T09:00:44.311Z,16.98
2019-03-21T09:01:44.283Z,17.18
2019-03-21T09:02:44.272Z,17.19
2019-03-21T09:03:44.259Z,17.26
2019-03-21T09:04:44.248Z,17.36
2019-03-21T09:05:44.256Z,17.37
2019-03-21T09:06:44.226Z,17.43
2019-03-21T09:07:44.214Z,17.59
2019-03-21T09:08:44.206Z,17.59
2019-03-21T09:09:44.192Z,17.54
2019-03-21T09:10:44.199Z,17.70
2019-03-21T09:11:44.170Z,17.71
2019-03-21T09:12:44.160Z,17.81
2019-03-21T09:13:44.149Z,17.84
2019-03-21T09:14:44.139Z,17.77
2019-03-21T09:15:44.146Z,17.81
2019-03-21T09:16:44.116Z,17.89
2019-03-21T09:17:44.104Z,17.92
2019-03-21T09:18:44.091Z,17.93
2019-03-21T09:19:44.081Z,18.02
2019-03-21T09:20:44.088Z,18.12
2019-03-21T09:21:44.059Z,18.14
2019-03-21T09:22:44.050Z,18.10
2019-03-21T09:23:44.041Z,18.25
2019-03-21T09:24:44.026Z,18.62
2019-03-21T09:25:44.040Z,18.87
2019-03-21T09:26:44.006Z,19.32
2019-03-21T09:27:43.996Z,19.73
2019-03-21T09:28:43.981Z,20.18
2019-03-21T09:29:53.141Z,20.42
2019-03-21T09:30:44.978Z,20.95
2019-03-21T09:31:43.948Z,21.32
2019-03-21T09:32:43.938Z,21.82
2019-03-21T09:33:43.927Z,22.51
2019-03-21T09:34:43.917Z,23.02
2019-03-21T09:35:43.922Z,23.55
2019-03-21T09:36:43.895Z,24.10
2019-03-21T09:37:43.881Z,24.64
2019-03-21T09:38:43.874Z,25.18
2019-03-21T09:39:43.861Z,25.65
2019-03-21T09:40:43.864Z,26.06
2019-03-21T09:41:43.837Z,26.32
2019-03-21T09:42:43.826Z,26.62
2019-03-21T09:43:43.813Z,26.94
2019-03-21T09:44:43.806Z,27.17
2019-03-21T09:45:43.809Z,27.34
2019-03-21T09:46:50.772Z,27.49
2019-03-21T09:47:44.767Z,27.88
2019-03-21T09:48:43.755Z,28.12
2019-03-21T09:49:43.749Z,28.30
2019-03-21T09:50:43.762Z,28.36
2019-03-21T09:51:43.726Z,28.36
2019-03-21T09:52:43.716Z,28.46
2019-03-21T09:53:43.703Z,28.76
2019-03-21T09:54:43.691Z,28.83
2019-03-21T09:55:43.699Z,28.78
2019-03-21T09:56:43.674Z,28.83
2019-03-21T09:57:43.657Z,29.06
2019-03-21T09:58:43.646Z,29.06
2019-03-21T09:59:43.642Z,29.11
2019-03-21T10:00:43.641Z,29.23
2019-03-21T10:01:43.617Z,29.21
2019-03-21T10:02:43.603Z,29.05
2019-03-21T10:03:43.592Z,28.59
2019-03-21T10:04:43.585Z,28.46
2019-03-21T10:05:43.588Z,28.77
2019-03-21T10:06:43.560Z,28.92
2019-03-21T10:07:43.552Z,29.06
2019-03-21T10:08:43.541Z,29.08
2019-03-21T10:09:43.526Z,29.24
2019-03-21T10:10:43.531Z,29.33
2019-03-21T10:11:43.507Z,29.49
2019-03-21T10:12:43.494Z,29.70
2019-03-21T10:13:43.482Z,29.92
2019-03-21T10:14:43.473Z,30.13
2019-03-21T10:15:43.480Z,30.24
2019-03-21T10:16:43.451Z,30.24
2019-03-21T10:17:43.443Z,29.76
2019-03-21T10:18:43.428Z,29.41
2019-03-21T10:19:43.418Z,29.37
2019-03-21T10:20:43.433Z,29.53
2019-03-21T10:21:43.894Z,29.68
2019-03-21T10:22:43.387Z,29.76
2019-03-21T10:23:43.379Z,29.86
2019-03-21T10:24:43.366Z,29.94
2019-03-21T10:25:43.370Z,30.13
2019-03-21T10:26:43.345Z,30.38
2019-03-21T10:27:43.334Z,30.32
2019-03-21T10:28:43.324Z,30.49
2019-03-21T10:29:43.312Z,30.69
2019-03-21T10:30:43.322Z,30.54
2019-03-21T10:31:43.292Z,30.42
2019-03-21T10:32:43.277Z,30.45
2019-03-21T10:33:43.271Z,30.54
2019-03-21T10:34:43.258Z,30.73
2019-03-21T10:35:43.265Z,30.77
2019-03-21T10:36:43.236Z,30.73
2019-03-21T10:37:43.229Z,30.75
2019-03-21T10:38:43.214Z,30.69
2019-03-21T10:39:43.207Z,30.83
2019-03-21T10:40:43.213Z,30.83
2019-03-21T10:41:43.188Z,30.88
2019-03-21T10:42:43.178Z,30.92
2019-03-21T10:43:43.166Z,30.84
2019-03-21T10:44:43.153Z,30.69
2019-03-21T10:45:43.161Z,30.73
2019-03-21T10:46:43.138Z,30.55
2019-03-21T10:47:43.125Z,30.61
2019-03-21T10:48:43.110Z,30.77
2019-03-21T10:49:43.102Z,30.76
2019-03-21T10:50:43.106Z,30.76
2019-03-21T10:51:54.142Z,30.76
2019-03-21T10:52:44.068Z,30.86
2019-03-21T10:53:43.058Z,31.09
2019-03-21T10:54:43.053Z,31.12
2019-03-21T10:55:43.053Z,31.04
2019-03-21T10:56:43.026Z,31.09
2019-03-21T10:57:43.015Z,30.84
2019-03-21T10:58:43.007Z,30.83
2019-03-21T10:59:42.993Z,30.79
2019-03-21T11:00:43.015Z,30.77
2019-03-21T11:01:42.974Z,30.76
2019-03-21T11:02:43.849Z,30.94
2019-03-21T11:03:42.953Z,31.04
2019-03-21T11:04:42.945Z,31.07
2019-03-21T11:05:42.950Z,31.21
2019-03-21T11:06:42.921Z,31.26
2019-03-21T11:07:42.910Z,31.47
2019-03-21T11:08:42.907Z,31.36
2019-03-21T11:09:42.890Z,31.28
2019-03-21T11:10:42.896Z,31.20
2019-03-21T11:11:42.870Z,31.16
2019-03-21T11:12:42.859Z,31.23
2019-03-21T11:13:42.851Z,31.14
2019-03-21T11:14:42.841Z,31.04
2019-03-21T11:15:42.844Z,31.14
2019-03-21T11:16:42.820Z,31.20
2019-03-21T11:17:42.807Z,31.26
2019-03-21T11:18:42.795Z,31.06
2019-03-21T11:19:42.786Z,30.84
2019-03-21T11:20:42.797Z,30.73
2019-03-21T11:21:42.766Z,30.57
2019-03-21T11:22:42.758Z,30.42
2019-03-21T11:23:42.753Z,29.53
2019-03-21T11:24:42.735Z,28.11
2019-03-21T11:25:42.739Z,26.54
2019-03-21T11:26:42.713Z,25.35
2019-03-21T11:27:42.704Z,24.68
2019-03-21T11:28:42.693Z,23.65
2019-03-21T11:29:42.682Z,23.04
2019-03-21T11:30:42.691Z,22.43
2019-03-21T11:31:42.665Z,21.90
2019-03-21T11:32:42.653Z,21.21
2019-03-21T11:33:42.639Z,20.76
2019-03-21T11:34:42.628Z,20.43
2019-03-21T11:35:42.636Z,20.11
2019-03-21T11:36:42.609Z,19.77
2019-03-21T11:37:42.597Z,19.62
2019-03-21T11:38:42.590Z,19.46
2019-03-21T11:39:42.578Z,19.43
2019-03-21T11:40:42.583Z,19.33
2019-03-21T11:41:42.555Z,19.22
2019-03-21T11:42:42.542Z,19.04
2019-03-21T11:43:42.534Z,18.85
2019-03-21T11:44:42.525Z,18.75
2019-03-21T11:45:42.527Z,18.66
2019-03-21T11:46:42.499Z,18.60
2019-03-21T11:47:42.493Z,18.51
2019-03-21T11:48:42.476Z,18.48
2019-03-21T11:49:42.477Z,18.44
2019-03-21T11:50:42.487Z,18.37
2019-03-21T11:51:42.443Z,18.32
2019-03-21T11:52:42.435Z,18.33
2019-03-21T11:53:42.422Z,18.14
2019-03-21T11:54:42.411Z,18.20
2019-03-21T11:55:42.419Z,18.12
2019-03-21T11:56:42.390Z,18.12
2019-03-21T11:57:42.381Z,18.07
2019-03-21T11:58:42.367Z,18.05
2019-03-21T11:59:51.530Z,18.05
2019-03-21T12:00:45.194Z,17.97
2019-03-21T12:01:42.332Z,17.90
2019-03-21T12:02:42.321Z,17.92
2019-03-21T12:03:42.312Z,17.96
2019-03-21T12:04:42.301Z,17.79
2019-03-21T12:05:42.307Z,17.86
2019-03-21T12:06:42.279Z,17.62
2019-03-21T12:07:42.266Z,17.58
2019-03-21T12:08:42.256Z,17.49
2019-03-21T12:09:42.243Z,17.46
2019-03-21T12:10:42.251Z,17.36
2019-03-21T12:11:42.220Z,17.22
2019-03-21T12:12:42.212Z,17.18
2019-03-21T12:13:42.200Z,17.08
2019-03-21T12:14:42.190Z,17.00
2019-03-21T12:15:42.193Z,16.81
2019-03-21T12:16:42.168Z,16.81
2019-03-21T12:17:42.155Z,16.73
2019-03-21T12:18:42.146Z,16.64
2019-03-21T12:19:42.133Z,16.58
2019-03-21T12:20:42.139Z,16.45
2019-03-21T12:21:42.109Z,16.43
2019-03-21T12:22:42.101Z,16.35
2019-03-21T12:23:42.087Z,16.31
2019-03-21T12:24:42.077Z,16.35
2019-03-21T12:25:42.084Z,16.30
2019-03-21T12:26:42.059Z,16.27
2019-03-21T12:27:42.042Z,16.30
2019-03-21T12:28:42.884Z,16.33
2019-03-21T12:29:43.880Z,16.35
2019-03-21T12:30:42.028Z,16.41
2019-03-21T12:31:50.418Z,16.33
2019-03-21T12:32:50.453Z,16.42
2019-03-21T12:33:51.497Z,16.25
2019-03-21T12:34:50.036Z,16.23
2019-03-21T12:35:49.622Z,16.14
2019-03-21T12:36:50.126Z,16.15
2019-03-21T12:37:51.155Z,16.05
2019-03-21T12:38:51.703Z,16.08
2019-03-21T12:39:51.231Z,16.05
2019-03-21T12:40:41.917Z,16.12
2019-03-21T12:41:41.886Z,16.05
2019-03-21T12:42:41.875Z,16.15
2019-03-21T12:43:41.870Z,16.12
2019-03-21T12:44:41.855Z,16.21
2019-03-21T12:45:41.863Z,16.15
2019-03-21T12:46:41.836Z,16.14
2019-03-21T12:47:41.825Z,16.05
2019-03-21T12:48:41.810Z,16.12
2019-03-21T12:49:41.798Z,16.02
2019-03-21T12:50:41.814Z,16.04
2019-03-21T12:51:41.780Z,16.04
2019-03-21T12:52:41.849Z,16.04
2019-03-21T12:53:41.763Z,15.92
2019-03-21T12:54:41.743Z,15.83
2019-03-21T12:55:41.756Z,15.71
2019-03-21T12:56:41.734Z,15.80
2019-03-21T12:57:41.720Z,15.74
2019-03-21T12:58:41.705Z,15.78
2019-03-21T12:59:41.695Z,15.87
2019-03-21T13:00:41.707Z,15.83
2019-03-21T13:01:41.679Z,15.90
2019-03-21T13:02:43.192Z,15.82
2019-03-21T13:03:41.648Z,15.83
2019-03-21T13:04:41.635Z,15.80
2019-03-21T13:05:41.646Z,15.82
2019-03-21T13:06:41.616Z,15.83